sensor_id;sensor_type;location;lat;lon;timestamp;temperature;humidity
3944;DHT22;1986;52.546;13.428;2023-05-29T00:01:34;14.10;99.90
3944;DHT22;1986;52.546;13.428;2023-05-29T00:04:04;14.10;99.90
3944;DHT22;1986;52.546;13.428;2023-05-29T00:06:32;14.00;99.90
3944;DHT22;1986;52.546;13.428;2023-05-29T00:09:01;14.00;99.90
3944;DHT22;1986;52.546;13.428;2023-05-29T00:11:28;14.00;99.90
3944;DHT22;1986;52.546;13.428;2023-05-29T00:13:55;13.90;99.90
3944;DHT22;1986;52.546;13.428;2023-05-29T00:16:24;13.90;99.90
3944;DHT22;1986;52.546;13.428;2023-05-29T00:18:54;13.80;99.90
3944;DHT22;1986;52.546;13.428;2023-05-29T00:21:24;13.80;99.90
3944;DHT22;1986;52.546;13.428;2023-05-29T00:23:54;13.70;99.90
3944;DHT22;1986;52.546;13.428;2023-05-29T00:26:21;13.70;99.90
3944;DHT22;1986;52.546;13.428;2023-05-29T00:28:50;13.70;99.90
3944;DHT22;1986;52.546;13.428;2023-05-29T00:31:21;13.60;99.90
3944;DHT22;1986;52.546;13.428;2023-05-29T00:33:50;13.60;99.90
3944;DHT22;1986;52.546;13.428;2023-05-29T00:36:20;13.60;99.90
3944;DHT22;1986;52.546;13.428;2023-05-29T00:38:47;13.60;99.90
3944;DHT22;1986;52.546;13.428;2023-05-29T00:41:18;13.60;99.90
3944;DHT22;1986;52.546;13.428;2023-05-29T00:43:45;13.60;99.90
3944;DHT22;1986;52.546;13.428;2023-05-29T00:46:13;13.60;99.90
3944;DHT22;1986;52.546;13.428;2023-05-29T00:48:42;13.50;99.90
3944;DHT22;1986;52.546;13.428;2023-05-29T00:51:10;13.50;99.90
3944;DHT22;1986;52.546;13.428;2023-05-29T00:53:38;13.40;99.90
3944;DHT22;1986;52.546;13.428;2023-05-29T00:56:09;13.40;99.90
3944;DHT22;1986;52.546;13.428;2023-05-29T00:58:39;13.30;99.90
3944;DHT22;1986;52.546;13.428;2023-05-29T01:01:09;13.30;99.90
3944;DHT22;1986;52.546;13.428;2023-05-29T01:03:37;13.30;99.90
3944;DHT22;1986;52.546;13.428;2023-05-29T01:06:05;13.20;99.90
3944;DHT22;1986;52.546;13.428;2023-05-29T01:08:33;13.20;99.90
3944;DHT22;1986;52.546;13.428;2023-05-29T01:11:04;13.10;99.90
3944;DHT22;1986;52.546;13.428;2023-05-29T01:13:35;13.00;99.90
3944;DHT22;1986;52.546;13.428;2023-05-29T01:16:11;12.90;99.90
3944;DHT22;1986;52.546;13.428;2023-05-29T01:18:44;12.90;99.90
3944;DHT22;1986;52.546;13.428;2023-05-29T01:21:22;12.80;99.90
3944;DHT22;1986;52.546;13.428;2023-05-29T01:23:56;12.80;99.90
3944;DHT22;1986;52.546;13.428;2023-05-29T01:26:55;12.70;99.90
3944;DHT22;1986;52.546;13.428;2023-05-29T01:29:26;12.70;99.90
3944;DHT22;1986;52.546;13.428;2023-05-29T01:31:57;12.70;99.90
3944;DHT22;1986;52.546;13.428;2023-05-29T01:34:25;12.60;99.90
3944;DHT22;1986;52.546;13.428;2023-05-29T01:36:52;12.60;99.90
3944;DHT22;1986;52.546;13.428;2023-05-29T01:39:19;12.50;99.90
3944;DHT22;1986;52.546;13.428;2023-05-29T01:41:47;12.50;99.90
3944;DHT22;1986;52.546;13.428;2023-05-29T01:44:17;12.50;99.90
3944;DHT22;1986;52.546;13.428;2023-05-29T01:46:46;12.50;99.90
3944;DHT22;1986;52.546;13.428;2023-05-29T01:49:14;12.50;99.90
3944;DHT22;1986;52.546;13.428;2023-05-29T01:51:42;12.50;99.90
3944;DHT22;1986;52.546;13.428;2023-05-29T01:54:10;12.50;99.90
3944;DHT22;1986;52.546;13.428;2023-05-29T01:56:37;12.40;99.90
3944;DHT22;1986;52.546;13.428;2023-05-29T01:59:05;12.40;99.90
3944;DHT22;1986;52.546;13.428;2023-05-29T02:01:34;12.30;99.90
3944;DHT22;1986;52.546;13.428;2023-05-29T02:04:01;12.30;99.90
3944;DHT22;1986;52.546;13.428;2023-05-29T02:06:31;12.20;99.90
3944;DHT22;1986;52.546;13.428;2023-05-29T02:08:59;12.10;99.90
3944;DHT22;1986;52.546;13.428;2023-05-29T02:11:26;12.10;99.90
3944;DHT22;1986;52.546;13.428;2023-05-29T02:13:53;12.00;99.90
3944;DHT22;1986;52.546;13.428;2023-05-29T02:16:20;12.00;99.90
3944;DHT22;1986;52.546;13.428;2023-05-29T02:18:48;12.00;99.90
3944;DHT22;1986;52.546;13.428;2023-05-29T02:21:17;11.90;99.90
3944;DHT22;1986;52.546;13.428;2023-05-29T02:23:45;11.90;99.90
3944;DHT22;1986;52.546;13.428;2023-05-29T02:26:13;11.90;99.90
3944;DHT22;1986;52.546;13.428;2023-05-29T02:28:41;11.80;99.90
3944;DHT22;1986;52.546;13.428;2023-05-29T02:31:08;11.80;99.90
3944;DHT22;1986;52.546;13.428;2023-05-29T02:33:34;11.70;99.90
3944;DHT22;1986;52.546;13.428;2023-05-29T02:36:03;11.70;99.90
3944;DHT22;1986;52.546;13.428;2023-05-29T02:38:37;11.70;99.90
3944;DHT22;1986;52.546;13.428;2023-05-29T02:41:04;11.70;99.90
3944;DHT22;1986;52.546;13.428;2023-05-29T02:43:31;11.60;99.90
3944;DHT22;1986;52.546;13.428;2023-05-29T02:45:59;11.60;99.90
3944;DHT22;1986;52.546;13.428;2023-05-29T02:48:27;11.60;99.90
3944;DHT22;1986;52.546;13.428;2023-05-29T02:50:56;11.60;99.90
3944;DHT22;1986;52.546;13.428;2023-05-29T02:53:25;11.50;99.90
3944;DHT22;1986;52.546;13.428;2023-05-29T02:55:55;11.50;99.90
3944;DHT22;1986;52.546;13.428;2023-05-29T02:58:22;11.50;99.90
3944;DHT22;1986;52.546;13.428;2023-05-29T03:00:51;11.50;99.90
3944;DHT22;1986;52.546;13.428;2023-05-29T03:03:18;11.50;99.90
3944;DHT22;1986;52.546;13.428;2023-05-29T03:05:45;11.50;99.90
3944;DHT22;1986;52.546;13.428;2023-05-29T03:08:12;11.50;99.90
3944;DHT22;1986;52.546;13.428;2023-05-29T03:10:40;11.50;99.90
3944;DHT22;1986;52.546;13.428;2023-05-29T03:13:09;11.60;99.90
3944;DHT22;1986;52.546;13.428;2023-05-29T03:15:36;11.50;99.90
3944;DHT22;1986;52.546;13.428;2023-05-29T03:18:03;11.50;99.90
3944;DHT22;1986;52.546;13.428;2023-05-29T03:20:30;11.40;99.90
3944;DHT22;1986;52.546;13.428;2023-05-29T03:22:56;11.50;99.90
3944;DHT22;1986;52.546;13.428;2023-05-29T03:25:23;11.50;99.90
3944;DHT22;1986;52.546;13.428;2023-05-29T03:27:52;11.50;99.90
3944;DHT22;1986;52.546;13.428;2023-05-29T03:30:19;11.50;99.90
3944;DHT22;1986;52.546;13.428;2023-05-29T03:32:46;11.50;99.90
3944;DHT22;1986;52.546;13.428;2023-05-29T03:35:13;11.50;99.90
3944;DHT22;1986;52.546;13.428;2023-05-29T03:37:40;11.40;99.90
3944;DHT22;1986;52.546;13.428;2023-05-29T03:40:08;11.30;99.90
3944;DHT22;1986;52.546;13.428;2023-05-29T03:42:35;11.30;99.90
3944;DHT22;1986;52.546;13.428;2023-05-29T03:45:04;11.30;99.90
3944;DHT22;1986;52.546;13.428;2023-05-29T03:47:31;11.40;99.90
3944;DHT22;1986;52.546;13.428;2023-05-29T03:49:58;11.30;99.90
3944;DHT22;1986;52.546;13.428;2023-05-29T03:52:25;11.30;99.90
3944;DHT22;1986;52.546;13.428;2023-05-29T03:54:52;11.40;99.90
3944;DHT22;1986;52.546;13.428;2023-05-29T03:57:19;11.30;99.90
3944;DHT22;1986;52.546;13.428;2023-05-29T03:59:46;11.40;99.90
3944;DHT22;1986;52.546;13.428;2023-05-29T04:02:17;11.40;99.90
3944;DHT22;1986;52.546;13.428;2023-05-29T04:04:44;11.40;99.90
3944;DHT22;1986;52.546;13.428;2023-05-29T04:07:11;11.40;99.90
3944;DHT22;1986;52.546;13.428;2023-05-29T04:09:38;11.40;99.90
3944;DHT22;1986;52.546;13.428;2023-05-29T04:12:05;11.50;99.90
3944;DHT22;1986;52.546;13.428;2023-05-29T04:14:32;11.50;99.90
3944;DHT22;1986;52.546;13.428;2023-05-29T04:16:59;11.50;99.90
3944;DHT22;1986;52.546;13.428;2023-05-29T04:19:28;11.70;99.90
3944;DHT22;1986;52.546;13.428;2023-05-29T04:21:56;11.70;99.90
3944;DHT22;1986;52.546;13.428;2023-05-29T04:24:24;11.80;99.90
3944;DHT22;1986;52.546;13.428;2023-05-29T04:26:52;12.00;99.90
3944;DHT22;1986;52.546;13.428;2023-05-29T04:29:19;12.00;99.90
3944;DHT22;1986;52.546;13.428;2023-05-29T04:31:46;12.10;99.90
3944;DHT22;1986;52.546;13.428;2023-05-29T04:34:13;12.20;99.90
3944;DHT22;1986;52.546;13.428;2023-05-29T04:36:44;12.20;99.90
3944;DHT22;1986;52.546;13.428;2023-05-29T04:39:11;12.30;99.90
3944;DHT22;1986;52.546;13.428;2023-05-29T04:41:39;12.40;99.90
3944;DHT22;1986;52.546;13.428;2023-05-29T04:44:06;12.40;99.90
3944;DHT22;1986;52.546;13.428;2023-05-29T04:46:36;12.60;99.90
3944;DHT22;1986;52.546;13.428;2023-05-29T04:49:03;12.60;99.90
3944;DHT22;1986;52.546;13.428;2023-05-29T04:51:30;12.70;99.90
3944;DHT22;1986;52.546;13.428;2023-05-29T04:54:02;12.70;99.90
3944;DHT22;1986;52.546;13.428;2023-05-29T04:56:29;12.70;99.90
3944;DHT22;1986;52.546;13.428;2023-05-29T04:58:56;12.90;99.90
3944;DHT22;1986;52.546;13.428;2023-05-29T05:01:24;12.90;99.90
3944;DHT22;1986;52.546;13.428;2023-05-29T05:03:51;12.90;99.90
3944;DHT22;1986;52.546;13.428;2023-05-29T05:06:21;12.90;99.90
3944;DHT22;1986;52.546;13.428;2023-05-29T05:08:48;12.90;99.90
3944;DHT22;1986;52.546;13.428;2023-05-29T05:11:16;12.90;99.90
3944;DHT22;1986;52.546;13.428;2023-05-29T05:13:45;13.00;99.90
3944;DHT22;1986;52.546;13.428;2023-05-29T05:16:12;13.10;99.90
3944;DHT22;1986;52.546;13.428;2023-05-29T05:18:39;13.30;99.90
3944;DHT22;1986;52.546;13.428;2023-05-29T05:21:06;13.50;99.90
3944;DHT22;1986;52.546;13.428;2023-05-29T05:23:34;13.90;99.90
3944;DHT22;1986;52.546;13.428;2023-05-29T05:26:08;14.30;99.90
3944;DHT22;1986;52.546;13.428;2023-05-29T05:28:36;14.70;99.90
3944;DHT22;1986;52.546;13.428;2023-05-29T05:31:03;14.60;99.90
3944;DHT22;1986;52.546;13.428;2023-05-29T05:33:30;14.40;99.90
3944;DHT22;1986;52.546;13.428;2023-05-29T05:35:57;14.80;99.90
3944;DHT22;1986;52.546;13.428;2023-05-29T05:38:24;14.80;99.90
3944;DHT22;1986;52.546;13.428;2023-05-29T05:40:51;14.90;99.90
3944;DHT22;1986;52.546;13.428;2023-05-29T05:43:18;15.20;99.90
3944;DHT22;1986;52.546;13.428;2023-05-29T05:45:46;15.20;99.90
3944;DHT22;1986;52.546;13.428;2023-05-29T05:48:13;15.40;99.90
3944;DHT22;1986;52.546;13.428;2023-05-29T05:50:43;15.40;99.90
3944;DHT22;1986;52.546;13.428;2023-05-29T05:53:10;15.80;99.90
3944;DHT22;1986;52.546;13.428;2023-05-29T05:55:37;15.60;99.90
3944;DHT22;1986;52.546;13.428;2023-05-29T05:58:03;15.60;99.90
3944;DHT22;1986;52.546;13.428;2023-05-29T06:00:30;15.60;99.90
3944;DHT22;1986;52.546;13.428;2023-05-29T06:02:59;16.00;99.90
3944;DHT22;1986;52.546;13.428;2023-05-29T06:05:28;16.50;99.90
3944;DHT22;1986;52.546;13.428;2023-05-29T06:07:55;17.30;99.90
3944;DHT22;1986;52.546;13.428;2023-05-29T06:10:23;18.00;99.90
3944;DHT22;1986;52.546;13.428;2023-05-29T06:12:52;18.20;99.90
3944;DHT22;1986;52.546;13.428;2023-05-29T06:15:20;17.80;99.90
3944;DHT22;1986;52.546;13.428;2023-05-29T06:17:47;17.20;99.90
3944;DHT22;1986;52.546;13.428;2023-05-29T06:20:15;16.90;99.90
3944;DHT22;1986;52.546;13.428;2023-05-29T06:22:43;17.00;99.90
3944;DHT22;1986;52.546;13.428;2023-05-29T06:25:16;16.70;99.90
3944;DHT22;1986;52.546;13.428;2023-05-29T06:27:44;16.70;99.90
3944;DHT22;1986;52.546;13.428;2023-05-29T06:30:12;16.80;99.90
3944;DHT22;1986;52.546;13.428;2023-05-29T06:32:42;16.70;99.90
3944;DHT22;1986;52.546;13.428;2023-05-29T06:35:11;17.10;99.90
3944;DHT22;1986;52.546;13.428;2023-05-29T06:37:42;17.90;99.10
3944;DHT22;1986;52.546;13.428;2023-05-29T06:40:09;17.80;97.70
3944;DHT22;1986;52.546;13.428;2023-05-29T06:42:38;17.80;97.60
3944;DHT22;1986;52.546;13.428;2023-05-29T06:45:06;18.20;97.80
3944;DHT22;1986;52.546;13.428;2023-05-29T06:47:33;18.30;96.40
3944;DHT22;1986;52.546;13.428;2023-05-29T06:50:02;18.70;95.80
3944;DHT22;1986;52.546;13.428;2023-05-29T06:52:29;18.80;95.20
3944;DHT22;1986;52.546;13.428;2023-05-29T06:54:57;19.40;94.70
3944;DHT22;1986;52.546;13.428;2023-05-29T06:57:24;18.70;93.70
3944;DHT22;1986;52.546;13.428;2023-05-29T06:59:52;18.40;94.80
3944;DHT22;1986;52.546;13.428;2023-05-29T07:02:19;18.70;94.10
3944;DHT22;1986;52.546;13.428;2023-05-29T07:04:48;18.50;93.20
3944;DHT22;1986;52.546;13.428;2023-05-29T07:07:15;19.10;93.30
3944;DHT22;1986;52.546;13.428;2023-05-29T07:09:42;17.90;98.60
3944;DHT22;1986;52.546;13.428;2023-05-29T07:12:13;17.20;97.90
3944;DHT22;1986;52.546;13.428;2023-05-29T07:14:39;17.00;98.30
3944;DHT22;1986;52.546;13.428;2023-05-29T07:17:06;17.30;98.70
3944;DHT22;1986;52.546;13.428;2023-05-29T07:19:33;18.10;98.20
3944;DHT22;1986;52.546;13.428;2023-05-29T07:22:00;19.00;97.30
3944;DHT22;1986;52.546;13.428;2023-05-29T07:24:27;20.40;94.70
3944;DHT22;1986;52.546;13.428;2023-05-29T07:26:54;21.40;91.60
3944;DHT22;1986;52.546;13.428;2023-05-29T07:29:23;21.90;87.90
3944;DHT22;1986;52.546;13.428;2023-05-29T07:31:51;20.30;84.00
3944;DHT22;1986;52.546;13.428;2023-05-29T07:34:28;19.80;85.20
3944;DHT22;1986;52.546;13.428;2023-05-29T07:37:04;20.30;89.40
3944;DHT22;1986;52.546;13.428;2023-05-29T07:39:33;21.60;85.70
3944;DHT22;1986;52.546;13.428;2023-05-29T07:42:01;22.00;81.60
3944;DHT22;1986;52.546;13.428;2023-05-29T07:44:29;21.50;79.40
3944;DHT22;1986;52.546;13.428;2023-05-29T07:46:56;21.00;79.00
3944;DHT22;1986;52.546;13.428;2023-05-29T07:49:23;20.50;79.60
3944;DHT22;1986;52.546;13.428;2023-05-29T07:51:50;19.60;78.90
3944;DHT22;1986;52.546;13.428;2023-05-29T07:54:17;19.70;82.30
3944;DHT22;1986;52.546;13.428;2023-05-29T07:56:46;20.10;80.40
3944;DHT22;1986;52.546;13.428;2023-05-29T07:59:13;20.20;78.20
3944;DHT22;1986;52.546;13.428;2023-05-29T08:01:41;19.70;80.00
3944;DHT22;1986;52.546;13.428;2023-05-29T08:04:09;20.30;81.60
3944;DHT22;1986;52.546;13.428;2023-05-29T08:06:36;21.20;80.40
3944;DHT22;1986;52.546;13.428;2023-05-29T08:09:03;21.10;79.00
3944;DHT22;1986;52.546;13.428;2023-05-29T08:11:30;22.20;78.80
3944;DHT22;1986;52.546;13.428;2023-05-29T08:13:58;23.60;75.60
3944;DHT22;1986;52.546;13.428;2023-05-29T08:16:25;22.10;68.80
3944;DHT22;1986;52.546;13.428;2023-05-29T08:18:54;22.30;70.70
3944;DHT22;1986;52.546;13.428;2023-05-29T08:21:21;23.70;68.90
3944;DHT22;1986;52.546;13.428;2023-05-29T08:23:48;23.40;64.60
3944;DHT22;1986;52.546;13.428;2023-05-29T08:26:15;22.30;68.30
3944;DHT22;1986;52.546;13.428;2023-05-29T08:28:42;24.20;63.60
3944;DHT22;1986;52.546;13.428;2023-05-29T08:31:09;25.20;59.50
3944;DHT22;1986;52.546;13.428;2023-05-29T08:33:36;25.30;57.40
3944;DHT22;1986;52.546;13.428;2023-05-29T08:36:07;24.10;56.80
3944;DHT22;1986;52.546;13.428;2023-05-29T08:38:34;24.80;55.20
3944;DHT22;1986;52.546;13.428;2023-05-29T08:41:01;23.20;54.50
3944;DHT22;1986;52.546;13.428;2023-05-29T08:43:33;22.70;56.50
3944;DHT22;1986;52.546;13.428;2023-05-29T08:46:02;21.80;58.60
3944;DHT22;1986;52.546;13.428;2023-05-29T08:48:30;21.30;60.60
3944;DHT22;1986;52.546;13.428;2023-05-29T08:50:58;21.30;61.80
3944;DHT22;1986;52.546;13.428;2023-05-29T08:53:26;21.00;64.30
3944;DHT22;1986;52.546;13.428;2023-05-29T08:55:54;21.10;66.20
3944;DHT22;1986;52.546;13.428;2023-05-29T08:58:22;20.60;66.80
3944;DHT22;1986;52.546;13.428;2023-05-29T09:00:50;20.60;67.00
3944;DHT22;1986;52.546;13.428;2023-05-29T09:03:17;20.70;67.50
3944;DHT22;1986;52.546;13.428;2023-05-29T09:05:45;20.60;68.00
3944;DHT22;1986;52.546;13.428;2023-05-29T09:08:13;20.50;69.40
3944;DHT22;1986;52.546;13.428;2023-05-29T09:10:42;20.50;69.60
3944;DHT22;1986;52.546;13.428;2023-05-29T09:13:09;20.30;70.70
3944;DHT22;1986;52.546;13.428;2023-05-29T09:15:37;20.60;71.70
3944;DHT22;1986;52.546;13.428;2023-05-29T09:18:06;20.70;70.80
3944;DHT22;1986;52.546;13.428;2023-05-29T09:20:37;20.70;71.90
3944;DHT22;1986;52.546;13.428;2023-05-29T09:23:05;20.50;73.20
3944;DHT22;1986;52.546;13.428;2023-05-29T09:25:34;20.90;73.30
3944;DHT22;1986;52.546;13.428;2023-05-29T09:28:04;21.00;72.60
3944;DHT22;1986;52.546;13.428;2023-05-29T09:30:36;20.80;71.30
3944;DHT22;1986;52.546;13.428;2023-05-29T09:33:04;20.80;70.60
3944;DHT22;1986;52.546;13.428;2023-05-29T09:35:35;20.90;70.40
3944;DHT22;1986;52.546;13.428;2023-05-29T09:38:06;20.80;68.90
3944;DHT22;1986;52.546;13.428;2023-05-29T09:40:35;20.70;70.00
3944;DHT22;1986;52.546;13.428;2023-05-29T09:43:05;20.90;70.20
3944;DHT22;1986;52.546;13.428;2023-05-29T09:45:39;20.80;70.00
3944;DHT22;1986;52.546;13.428;2023-05-29T09:48:07;20.80;67.90
3944;DHT22;1986;52.546;13.428;2023-05-29T09:50:35;20.90;68.50
3944;DHT22;1986;52.546;13.428;2023-05-29T09:53:02;21.00;69.60
3944;DHT22;1986;52.546;13.428;2023-05-29T09:55:33;21.20;67.90
3944;DHT22;1986;52.546;13.428;2023-05-29T09:58:01;21.10;67.30
3944;DHT22;1986;52.546;13.428;2023-05-29T10:00:30;21.30;66.60
3944;DHT22;1986;52.546;13.428;2023-05-29T10:02:58;21.50;66.50
3944;DHT22;1986;52.546;13.428;2023-05-29T10:05:25;21.30;66.80
3944;DHT22;1986;52.546;13.428;2023-05-29T10:07:54;21.70;65.50
3944;DHT22;1986;52.546;13.428;2023-05-29T10:10:21;21.60;65.00
3944;DHT22;1986;52.546;13.428;2023-05-29T10:12:54;21.60;65.10
3944;DHT22;1986;52.546;13.428;2023-05-29T10:15:23;21.70;64.50
3944;DHT22;1986;52.546;13.428;2023-05-29T10:18:02;21.40;64.00
3944;DHT22;1986;52.546;13.428;2023-05-29T10:20:31;21.20;65.00
3944;DHT22;1986;52.546;13.428;2023-05-29T10:23:00;20.70;64.90
3944;DHT22;1986;52.546;13.428;2023-05-29T10:25:31;21.00;65.50
3944;DHT22;1986;52.546;13.428;2023-05-29T10:28:00;21.30;65.70
3944;DHT22;1986;52.546;13.428;2023-05-29T10:30:31;21.60;64.70
3944;DHT22;1986;52.546;13.428;2023-05-29T10:33:10;21.70;64.20
3944;DHT22;1986;52.546;13.428;2023-05-29T10:35:44;21.60;62.00
3944;DHT22;1986;52.546;13.428;2023-05-29T10:38:13;21.80;62.70
3944;DHT22;1986;52.546;13.428;2023-05-29T10:40:42;21.80;58.70
3944;DHT22;1986;52.546;13.428;2023-05-29T10:43:30;21.60;58.70
3944;DHT22;1986;52.546;13.428;2023-05-29T10:45:58;21.50;58.90
3944;DHT22;1986;52.546;13.428;2023-05-29T10:48:42;21.70;59.30
3944;DHT22;1986;52.546;13.428;2023-05-29T10:51:25;21.80;59.60
3944;DHT22;1986;52.546;13.428;2023-05-29T10:53:52;22.10;59.30
3944;DHT22;1986;52.546;13.428;2023-05-29T10:56:23;22.30;60.00
3944;DHT22;1986;52.546;13.428;2023-05-29T10:58:55;22.00;60.00
3944;DHT22;1986;52.546;13.428;2023-05-29T11:01:23;22.30;59.60
3944;DHT22;1986;52.546;13.428;2023-05-29T11:03:54;21.90;58.40
3944;DHT22;1986;52.546;13.428;2023-05-29T11:06:42;21.90;58.40
3944;DHT22;1986;52.546;13.428;2023-05-29T11:09:26;22.10;57.90
3944;DHT22;1986;52.546;13.428;2023-05-29T11:12:21;22.20;56.20
3944;DHT22;1986;52.546;13.428;2023-05-29T11:15:02;21.80;56.20
3944;DHT22;1986;52.546;13.428;2023-05-29T11:17:43;21.90;56.30
3944;DHT22;1986;52.546;13.428;2023-05-29T11:20:21;21.40;56.90
3944;DHT22;1986;52.546;13.428;2023-05-29T11:23:01;21.20;58.50
3944;DHT22;1986;52.546;13.428;2023-05-29T11:25:36;20.90;59.80
3944;DHT22;1986;52.546;13.428;2023-05-29T11:28:04;21.00;61.00
3944;DHT22;1986;52.546;13.428;2023-05-29T11:30:48;21.00;61.50
3944;DHT22;1986;52.546;13.428;2023-05-29T11:33:23;21.00;61.60
3944;DHT22;1986;52.546;13.428;2023-05-29T11:35:58;21.20;60.00
3944;DHT22;1986;52.546;13.428;2023-05-29T11:38:26;21.40;59.30
3944;DHT22;1986;52.546;13.428;2023-05-29T11:40:56;21.50;56.50
3944;DHT22;1986;52.546;13.428;2023-05-29T11:43:24;21.60;55.90
3944;DHT22;1986;52.546;13.428;2023-05-29T11:45:51;21.70;56.50
3944;DHT22;1986;52.546;13.428;2023-05-29T11:48:18;22.00;58.20
3944;DHT22;1986;52.546;13.428;2023-05-29T11:50:45;22.10;59.80
3944;DHT22;1986;52.546;13.428;2023-05-29T11:53:14;22.00;58.90
3944;DHT22;1986;52.546;13.428;2023-05-29T11:55:41;21.80;58.20
3944;DHT22;1986;52.546;13.428;2023-05-29T11:58:08;21.90;58.50
3944;DHT22;1986;52.546;13.428;2023-05-29T12:00:36;21.90;58.40
3944;DHT22;1986;52.546;13.428;2023-05-29T12:03:04;22.00;57.80
3944;DHT22;1986;52.546;13.428;2023-05-29T12:05:32;22.00;58.30
3944;DHT22;1986;52.546;13.428;2023-05-29T12:07:59;21.30;56.70
3944;DHT22;1986;52.546;13.428;2023-05-29T12:10:31;21.00;57.60
3944;DHT22;1986;52.546;13.428;2023-05-29T12:12:59;21.20;59.20
3944;DHT22;1986;52.546;13.428;2023-05-29T12:15:27;21.00;60.30
3944;DHT22;1986;52.546;13.428;2023-05-29T12:17:54;21.40;61.40
3944;DHT22;1986;52.546;13.428;2023-05-29T12:20:23;21.80;60.20
3944;DHT22;1986;52.546;13.428;2023-05-29T12:22:52;22.00;59.90
3944;DHT22;1986;52.546;13.428;2023-05-29T12:25:20;22.20;60.10
3944;DHT22;1986;52.546;13.428;2023-05-29T12:27:52;21.90;59.60
3944;DHT22;1986;52.546;13.428;2023-05-29T12:30:22;21.80;59.00
3944;DHT22;1986;52.546;13.428;2023-05-29T12:32:53;21.70;58.70
3944;DHT22;1986;52.546;13.428;2023-05-29T12:35:22;20.90;59.10
3944;DHT22;1986;52.546;13.428;2023-05-29T12:37:53;21.20;60.60
3944;DHT22;1986;52.546;13.428;2023-05-29T12:40:22;21.10;59.40
3944;DHT22;1986;52.546;13.428;2023-05-29T12:42:54;21.20;58.20
3944;DHT22;1986;52.546;13.428;2023-05-29T12:45:24;21.30;56.70
3944;DHT22;1986;52.546;13.428;2023-05-29T12:47:52;21.00;57.30
3944;DHT22;1986;52.546;13.428;2023-05-29T12:50:24;21.40;56.50
3944;DHT22;1986;52.546;13.428;2023-05-29T12:52:55;21.50;56.80
3944;DHT22;1986;52.546;13.428;2023-05-29T12:55:22;21.50;55.60
3944;DHT22;1986;52.546;13.428;2023-05-29T12:57:50;21.50;56.70
3944;DHT22;1986;52.546;13.428;2023-05-29T13:00:19;21.70;57.80
3944;DHT22;1986;52.546;13.428;2023-05-29T13:02:47;21.90;57.90
3944;DHT22;1986;52.546;13.428;2023-05-29T13:05:14;22.00;56.80
3944;DHT22;1986;52.546;13.428;2023-05-29T13:07:44;21.90;55.60
3944;DHT22;1986;52.546;13.428;2023-05-29T13:10:12;21.70;54.60
3944;DHT22;1986;52.546;13.428;2023-05-29T13:12:39;21.60;55.50
3944;DHT22;1986;52.546;13.428;2023-05-29T13:15:10;21.70;55.40
3944;DHT22;1986;52.546;13.428;2023-05-29T13:17:37;21.60;55.00
3944;DHT22;1986;52.546;13.428;2023-05-29T13:20:08;21.70;55.00
3944;DHT22;1986;52.546;13.428;2023-05-29T13:22:35;21.70;54.00
3944;DHT22;1986;52.546;13.428;2023-05-29T13:25:02;21.90;53.90
3944;DHT22;1986;52.546;13.428;2023-05-29T13:27:32;22.20;53.50
3944;DHT22;1986;52.546;13.428;2023-05-29T13:30:00;22.60;54.40
3944;DHT22;1986;52.546;13.428;2023-05-29T13:32:28;22.10;54.40
3944;DHT22;1986;52.546;13.428;2023-05-29T13:34:55;22.50;55.60
3944;DHT22;1986;52.546;13.428;2023-05-29T13:37:22;22.60;54.60
3944;DHT22;1986;52.546;13.428;2023-05-29T13:39:49;22.90;54.80
3944;DHT22;1986;52.546;13.428;2023-05-29T13:42:17;23.00;54.80
3944;DHT22;1986;52.546;13.428;2023-05-29T13:44:44;23.10;53.90
3944;DHT22;1986;52.546;13.428;2023-05-29T13:47:11;22.50;53.30
3944;DHT22;1986;52.546;13.428;2023-05-29T13:49:41;22.30;53.50
3944;DHT22;1986;52.546;13.428;2023-05-29T13:52:09;22.30;53.70
3944;DHT22;1986;52.546;13.428;2023-05-29T13:54:35;22.40;53.40
3944;DHT22;1986;52.546;13.428;2023-05-29T13:57:03;22.50;54.60
3944;DHT22;1986;52.546;13.428;2023-05-29T13:59:30;22.80;54.20
3944;DHT22;1986;52.546;13.428;2023-05-29T14:01:57;23.10;53.10
3944;DHT22;1986;52.546;13.428;2023-05-29T14:04:26;23.10;51.70
3944;DHT22;1986;52.546;13.428;2023-05-29T14:06:55;23.40;51.90
3944;DHT22;1986;52.546;13.428;2023-05-29T14:09:23;23.40;51.30
3944;DHT22;1986;52.546;13.428;2023-05-29T14:11:53;23.30;50.60
3944;DHT22;1986;52.546;13.428;2023-05-29T14:14:20;23.00;50.70
3944;DHT22;1986;52.546;13.428;2023-05-29T14:16:48;22.50;51.50
3944;DHT22;1986;52.546;13.428;2023-05-29T14:19:15;22.60;52.30
3944;DHT22;1986;52.546;13.428;2023-05-29T14:21:43;22.60;52.50
3944;DHT22;1986;52.546;13.428;2023-05-29T14:24:12;22.80;52.50
3944;DHT22;1986;52.546;13.428;2023-05-29T14:26:41;22.70;52.00
3944;DHT22;1986;52.546;13.428;2023-05-29T14:29:11;21.90;52.00
3944;DHT22;1986;52.546;13.428;2023-05-29T14:31:38;22.00;52.90
3944;DHT22;1986;52.546;13.428;2023-05-29T14:34:05;22.20;52.90
3944;DHT22;1986;52.546;13.428;2023-05-29T14:36:32;22.40;52.90
3944;DHT22;1986;52.546;13.428;2023-05-29T14:38:59;22.40;51.90
3944;DHT22;1986;52.546;13.428;2023-05-29T14:41:28;22.40;52.00
3944;DHT22;1986;52.546;13.428;2023-05-29T14:43:55;22.30;51.70
3944;DHT22;1986;52.546;13.428;2023-05-29T14:46:24;22.00;52.90
3944;DHT22;1986;52.546;13.428;2023-05-29T14:48:51;22.10;52.60
3944;DHT22;1986;52.546;13.428;2023-05-29T14:51:19;22.30;51.30
3944;DHT22;1986;52.546;13.428;2023-05-29T14:53:46;22.20;50.70
3944;DHT22;1986;52.546;13.428;2023-05-29T14:56:13;22.20;50.90
3944;DHT22;1986;52.546;13.428;2023-05-29T14:58:42;22.00;51.10
3944;DHT22;1986;52.546;13.428;2023-05-29T15:01:11;21.90;51.00
3944;DHT22;1986;52.546;13.428;2023-05-29T15:03:41;22.20;51.00
3944;DHT22;1986;52.546;13.428;2023-05-29T15:06:10;22.10;50.00
3944;DHT22;1986;52.546;13.428;2023-05-29T15:08:38;22.00;50.50
3944;DHT22;1986;52.546;13.428;2023-05-29T15:11:05;22.10;50.70
3944;DHT22;1986;52.546;13.428;2023-05-29T15:13:33;21.80;51.00
3944;DHT22;1986;52.546;13.428;2023-05-29T15:16:01;21.90;50.60
3944;DHT22;1986;52.546;13.428;2023-05-29T15:18:29;21.80;50.90
3944;DHT22;1986;52.546;13.428;2023-05-29T15:20:56;21.90;50.90
3944;DHT22;1986;52.546;13.428;2023-05-29T15:23:24;22.10;51.20
3944;DHT22;1986;52.546;13.428;2023-05-29T15:25:52;22.20;50.40
3944;DHT22;1986;52.546;13.428;2023-05-29T15:28:19;22.00;50.70
3944;DHT22;1986;52.546;13.428;2023-05-29T15:30:46;22.00;49.80
3944;DHT22;1986;52.546;13.428;2023-05-29T15:33:14;21.90;49.50
3944;DHT22;1986;52.546;13.428;2023-05-29T15:35:41;21.90;50.80
3944;DHT22;1986;52.546;13.428;2023-05-29T15:38:09;21.80;50.00
3944;DHT22;1986;52.546;13.428;2023-05-29T15:40:38;21.60;49.90
3944;DHT22;1986;52.546;13.428;2023-05-29T15:43:05;21.50;50.30
3944;DHT22;1986;52.546;13.428;2023-05-29T15:45:32;21.40;50.50
3944;DHT22;1986;52.546;13.428;2023-05-29T15:47:59;21.60;50.70
3944;DHT22;1986;52.546;13.428;2023-05-29T15:50:27;21.80;50.90
3944;DHT22;1986;52.546;13.428;2023-05-29T15:52:54;22.00;51.40
3944;DHT22;1986;52.546;13.428;2023-05-29T15:55:21;22.10;51.70